sensor_id;sensor_type;location;lat;lon;timestamp;P1;durP1;ratioP1;P2;durP2;ratioP2
19826;SDS011;10074;52.018;4.726;2022-12-24T00:02:59;1.63;;;0.77;;
19826;SDS011;10074;52.018;4.726;2022-12-24T00:08:00;1.23;;;0.77;;
19826;SDS011;10074;52.018;4.726;2022-12-24T00:13:00;1.00;;;0.70;;
19826;SDS011;10074;52.018;4.726;2022-12-24T00:18:00;1.50;;;1.17;;
19826;SDS011;10074;52.018;4.726;2022-12-24T00:23:01;1.90;;;0.70;;
19826;SDS011;10074;52.018;4.726;2022-12-24T00:28:01;1.43;;;1.10;;
19826;SDS011;10074;52.018;4.726;2022-12-24T00:33:01;0.70;;;0.47;;
19826;SDS011;10074;52.018;4.726;2022-12-24T00:38:02;1.90;;;1.27;;
19826;SDS011;10074;52.018;4.726;2022-12-24T00:43:02;2.33;;;1.13;;
19826;SDS011;10074;52.018;4.726;2022-12-24T00:48:03;1.23;;;0.70;;
19826;SDS011;10074;52.018;4.726;2022-12-24T00:53:03;1.13;;;1.00;;
19826;SDS011;10074;52.018;4.726;2022-12-24T00:58:04;1.13;;;0.80;;
19826;SDS011;10074;52.018;4.726;2022-12-24T01:03:04;2.20;;;1.30;;
19826;SDS011;10074;52.018;4.726;2022-12-24T01:08:05;0.93;;;0.50;;
19826;SDS011;10074;52.018;4.726;2022-12-24T01:13:05;0.77;;;0.70;;
19826;SDS011;10074;52.018;4.726;2022-12-24T01:18:06;0.70;;;0.70;;
19826;SDS011;10074;52.018;4.726;2022-12-24T01:23:06;1.67;;;0.77;;
19826;SDS011;10074;52.018;4.726;2022-12-24T01:28:06;2.30;;;1.27;;
19826;SDS011;10074;52.018;4.726;2022-12-24T01:33:07;2.33;;;1.43;;
19826;SDS011;10074;52.018;4.726;2022-12-24T01:38:08;0.70;;;0.70;;
19826;SDS011;10074;52.018;4.726;2022-12-24T01:43:20;1.30;;;1.20;;
19826;SDS011;10074;52.018;4.726;2022-12-24T01:48:29;0.80;;;0.80;;
19826;SDS011;10074;52.018;4.726;2022-12-24T01:53:33;6.67;;;1.00;;
19826;SDS011;10074;52.018;4.726;2022-12-24T01:58:37;2.20;;;1.07;;
19826;SDS011;10074;52.018;4.726;2022-12-24T02:03:41;2.43;;;0.77;;
19826;SDS011;10074;52.018;4.726;2022-12-24T02:08:42;1.03;;;0.57;;
19826;SDS011;10074;52.018;4.726;2022-12-24T02:13:45;1.53;;;1.23;;
19826;SDS011;10074;52.018;4.726;2022-12-24T02:19:12;0.50;;;0.50;;
19826;SDS011;10074;52.018;4.726;2022-12-24T02:24:37;0.83;;;0.83;;
19826;SDS011;10074;52.018;4.726;2022-12-24T02:40:24;1.87;;;1.23;;
19826;SDS011;10074;52.018;4.726;2022-12-24T02:45:29;1.87;;;1.23;;
19826;SDS011;10074;52.018;4.726;2022-12-24T02:50:32;3.10;;;0.97;;
19826;SDS011;10074;52.018;4.726;2022-12-24T02:55:38;2.47;;;1.17;;
19826;SDS011;10074;52.018;4.726;2022-12-24T03:00:58;1.33;;;0.77;;
19826;SDS011;10074;52.018;4.726;2022-12-24T03:06:16;0.57;;;0.53;;
19826;SDS011;10074;52.018;4.726;2022-12-24T03:11:29;1.57;;;1.47;;
19826;SDS011;10074;52.018;4.726;2022-12-24T03:16:29;1.17;;;1.07;;
19826;SDS011;10074;52.018;4.726;2022-12-24T03:21:31;1.03;;;0.93;;
19826;SDS011;10074;52.018;4.726;2022-12-24T03:26:34;1.13;;;1.13;;
19826;SDS011;10074;52.018;4.726;2022-12-24T03:31:40;1.20;;;0.90;;
19826;SDS011;10074;52.018;4.726;2022-12-24T03:36:44;1.50;;;0.80;;
19826;SDS011;10074;52.018;4.726;2022-12-24T03:41:47;0.73;;;0.73;;
19826;SDS011;10074;52.018;4.726;2022-12-24T03:46:47;3.37;;;1.53;;
19826;SDS011;10074;52.018;4.726;2022-12-24T03:51:48;0.80;;;0.70;;
19826;SDS011;10074;52.018;4.726;2022-12-24T03:56:48;0.63;;;0.63;;
19826;SDS011;10074;52.018;4.726;2022-12-24T04:01:49;1.33;;;0.70;;
19826;SDS011;10074;52.018;4.726;2022-12-24T04:06:49;3.77;;;2.17;;
19826;SDS011;10074;52.018;4.726;2022-12-24T04:11:50;0.73;;;0.73;;
19826;SDS011;10074;52.018;4.726;2022-12-24T04:16:50;1.97;;;1.53;;
19826;SDS011;10074;52.018;4.726;2022-12-24T04:21:50;1.00;;;0.97;;
19826;SDS011;10074;52.018;4.726;2022-12-24T04:26:55;1.70;;;1.33;;
19826;SDS011;10074;52.018;4.726;2022-12-24T04:31:55;0.80;;;0.63;;
19826;SDS011;10074;52.018;4.726;2022-12-24T04:36:55;1.37;;;1.10;;
19826;SDS011;10074;52.018;4.726;2022-12-24T04:41:56;1.30;;;1.20;;
19826;SDS011;10074;52.018;4.726;2022-12-24T04:46:56;1.90;;;1.50;;
19826;SDS011;10074;52.018;4.726;2022-12-24T04:51:57;3.77;;;1.70;;
19826;SDS011;10074;52.018;4.726;2022-12-24T04:56:57;3.33;;;0.90;;
19826;SDS011;10074;52.018;4.726;2022-12-24T05:01:57;1.00;;;0.93;;
19826;SDS011;10074;52.018;4.726;2022-12-24T05:06:58;0.87;;;0.80;;
19826;SDS011;10074;52.018;4.726;2022-12-24T05:11:58;0.67;;;0.60;;
19826;SDS011;10074;52.018;4.726;2022-12-24T05:16:59;1.53;;;1.33;;
19826;SDS011;10074;52.018;4.726;2022-12-24T05:21:59;1.60;;;1.10;;
19826;SDS011;10074;52.018;4.726;2022-12-24T05:27:18;0.70;;;0.60;;
19826;SDS011;10074;52.018;4.726;2022-12-24T05:32:19;3.07;;;1.17;;
19826;SDS011;10074;52.018;4.726;2022-12-24T05:37:19;1.30;;;1.20;;
19826;SDS011;10074;52.018;4.726;2022-12-24T05:42:20;4.10;;;1.00;;
19826;SDS011;10074;52.018;4.726;2022-12-24T05:47:20;3.07;;;0.90;;
19826;SDS011;10074;52.018;4.726;2022-12-24T05:52:20;0.80;;;0.80;;
19826;SDS011;10074;52.018;4.726;2022-12-24T05:57:21;1.30;;;1.15;;
19826;SDS011;10074;52.018;4.726;2022-12-24T06:02:21;2.73;;;1.77;;
19826;SDS011;10074;52.018;4.726;2022-12-24T06:07:22;2.40;;;1.17;;
19826;SDS011;10074;52.018;4.726;2022-12-24T06:12:22;1.97;;;1.37;;
19826;SDS011;10074;52.018;4.726;2022-12-24T06:17:23;2.20;;;0.73;;
19826;SDS011;10074;52.018;4.726;2022-12-24T06:22:23;1.20;;;0.80;;
19826;SDS011;10074;52.018;4.726;2022-12-24T06:27:24;0.77;;;0.50;;
19826;SDS011;10074;52.018;4.726;2022-12-24T06:32:24;2.87;;;1.47;;
19826;SDS011;10074;52.018;4.726;2022-12-24T06:37:25;0.67;;;0.67;;
19826;SDS011;10074;52.018;4.726;2022-12-24T06:42:25;0.83;;;0.70;;
19826;SDS011;10074;52.018;4.726;2022-12-24T06:47:26;1.10;;;0.70;;
19826;SDS011;10074;52.018;4.726;2022-12-24T06:52:26;0.93;;;0.63;;
19826;SDS011;10074;52.018;4.726;2022-12-24T06:57:27;1.30;;;0.90;;
19826;SDS011;10074;52.018;4.726;2022-12-24T07:02:28;1.67;;;0.93;;
19826;SDS011;10074;52.018;4.726;2022-12-24T07:07:28;3.70;;;1.43;;
19826;SDS011;10074;52.018;4.726;2022-12-24T07:12:28;1.70;;;1.20;;
19826;SDS011;10074;52.018;4.726;2022-12-24T07:17:29;3.13;;;1.73;;
19826;SDS011;10074;52.018;4.726;2022-12-24T07:22:29;1.13;;;0.83;;
19826;SDS011;10074;52.018;4.726;2022-12-24T07:27:29;3.47;;;1.60;;
19826;SDS011;10074;52.018;4.726;2022-12-24T07:32:30;1.83;;;1.23;;
19826;SDS011;10074;52.018;4.726;2022-12-24T07:37:30;1.40;;;0.70;;
19826;SDS011;10074;52.018;4.726;2022-12-24T07:42:31;2.03;;;1.00;;
19826;SDS011;10074;52.018;4.726;2022-12-24T07:47:31;2.23;;;0.93;;
19826;SDS011;10074;52.018;4.726;2022-12-24T07:52:31;0.60;;;0.60;;
19826;SDS011;10074;52.018;4.726;2022-12-24T07:57:32;1.37;;;1.00;;
19826;SDS011;10074;52.018;4.726;2022-12-24T08:02:32;1.50;;;1.00;;
19826;SDS011;10074;52.018;4.726;2022-12-24T08:07:32;2.93;;;1.17;;
19826;SDS011;10074;52.018;4.726;2022-12-24T08:12:33;1.43;;;1.03;;
19826;SDS011;10074;52.018;4.726;2022-12-24T08:17:33;2.70;;;1.37;;
19826;SDS011;10074;52.018;4.726;2022-12-24T08:22:33;2.83;;;1.47;;
19826;SDS011;10074;52.018;4.726;2022-12-24T08:27:34;0.90;;;0.80;;
19826;SDS011;10074;52.018;4.726;2022-12-24T08:32:34;0.90;;;0.77;;
19826;SDS011;10074;52.018;4.726;2022-12-24T08:37:34;1.47;;;1.10;;
19826;SDS011;10074;52.018;4.726;2022-12-24T08:42:35;4.87;;;2.00;;
19826;SDS011;10074;52.018;4.726;2022-12-24T08:47:35;2.17;;;1.05;;
19826;SDS011;10074;52.018;4.726;2022-12-24T08:52:36;2.90;;;1.63;;
19826;SDS011;10074;52.018;4.726;2022-12-24T08:57:36;1.13;;;0.90;;
19826;SDS011;10074;52.018;4.726;2022-12-24T09:02:37;1.40;;;1.30;;
19826;SDS011;10074;52.018;4.726;2022-12-24T09:07:37;1.03;;;0.90;;
19826;SDS011;10074;52.018;4.726;2022-12-24T09:12:37;1.13;;;1.03;;
19826;SDS011;10074;52.018;4.726;2022-12-24T09:17:38;3.30;;;1.83;;
19826;SDS011;10074;52.018;4.726;2022-12-24T09:22:39;5.07;;;1.90;;
19826;SDS011;10074;52.018;4.726;2022-12-24T09:27:39;1.77;;;1.07;;
19826;SDS011;10074;52.018;4.726;2022-12-24T09:32:39;2.37;;;1.50;;
19826;SDS011;10074;52.018;4.726;2022-12-24T09:37:40;1.37;;;1.20;;
19826;SDS011;10074;52.018;4.726;2022-12-24T09:42:47;2.60;;;0.90;;
19826;SDS011;10074;52.018;4.726;2022-12-24T09:47:53;1.33;;;1.13;;
19826;SDS011;10074;52.018;4.726;2022-12-24T09:53:26;2.20;;;1.07;;
19826;SDS011;10074;52.018;4.726;2022-12-24T09:58:58;1.13;;;0.90;;
19826;SDS011;10074;52.018;4.726;2022-12-24T10:04:06;2.87;;;1.13;;
19826;SDS011;10074;52.018;4.726;2022-12-24T10:15:02;4.03;;;1.40;;
19826;SDS011;10074;52.018;4.726;2022-12-24T10:30:22;5.60;;;1.10;;
19826;SDS011;10074;52.018;4.726;2022-12-24T10:35:24;1.53;;;1.03;;
19826;SDS011;10074;52.018;4.726;2022-12-24T10:40:30;1.50;;;0.80;;
19826;SDS011;10074;52.018;4.726;2022-12-24T10:45:49;1.60;;;1.00;;
19826;SDS011;10074;52.018;4.726;2022-12-24T10:56:03;2.87;;;1.53;;
19826;SDS011;10074;52.018;4.726;2022-12-24T11:01:09;1.20;;;0.93;;
19826;SDS011;10074;52.018;4.726;2022-12-24T11:06:11;0.80;;;0.70;;
19826;SDS011;10074;52.018;4.726;2022-12-24T11:21:23;2.60;;;1.40;;
19826;SDS011;10074;52.018;4.726;2022-12-24T11:26:27;1.00;;;0.90;;
19826;SDS011;10074;52.018;4.726;2022-12-24T11:31:29;1.13;;;1.03;;
19826;SDS011;10074;52.018;4.726;2022-12-24T11:36:31;6.80;;;1.53;;
19826;SDS011;10074;52.018;4.726;2022-12-24T11:41:35;2.33;;;1.77;;
19826;SDS011;10074;52.018;4.726;2022-12-24T11:46:38;1.70;;;0.97;;
19826;SDS011;10074;52.018;4.726;2022-12-24T11:51:45;3.13;;;1.33;;
19826;SDS011;10074;52.018;4.726;2022-12-24T11:57:01;1.73;;;1.63;;
19826;SDS011;10074;52.018;4.726;2022-12-24T12:02:11;3.30;;;1.37;;
19826;SDS011;10074;52.018;4.726;2022-12-24T12:07:17;2.37;;;0.83;;
19826;SDS011;10074;52.018;4.726;2022-12-24T12:12:24;3.27;;;1.80;;
19826;SDS011;10074;52.018;4.726;2022-12-24T12:28:17;4.93;;;1.80;;
19826;SDS011;10074;52.018;4.726;2022-12-24T12:33:24;1.40;;;0.90;;
19826;SDS011;10074;52.018;4.726;2022-12-24T12:38:30;2.77;;;0.83;;
19826;SDS011;10074;52.018;4.726;2022-12-24T12:48:45;2.70;;;0.77;;
19826;SDS011;10074;52.018;4.726;2022-12-24T12:54:07;1.13;;;0.90;;
19826;SDS011;10074;52.018;4.726;2022-12-24T12:59:29;8.33;;;2.23;;
19826;SDS011;10074;52.018;4.726;2022-12-24T13:21:01;1.57;;;1.40;;
19826;SDS011;10074;52.018;4.726;2022-12-24T13:26:02;2.87;;;1.93;;
19826;SDS011;10074;52.018;4.726;2022-12-24T13:36:14;1.40;;;1.20;;
19826;SDS011;10074;52.018;4.726;2022-12-24T13:52:07;2.80;;;2.03;;
19826;SDS011;10074;52.018;4.726;2022-12-24T14:02:38;1.77;;;1.20;;
19826;SDS011;10074;52.018;4.726;2022-12-24T14:07:46;3.33;;;1.63;;
19826;SDS011;10074;52.018;4.726;2022-12-24T14:12:49;2.00;;;1.43;;
19826;SDS011;10074;52.018;4.726;2022-12-24T14:17:50;2.37;;;2.00;;
19826;SDS011;10074;52.018;4.726;2022-12-24T14:22:51;3.70;;;2.30;;
19826;SDS011;10074;52.018;4.726;2022-12-24T14:27:57;3.93;;;1.87;;
19826;SDS011;10074;52.018;4.726;2022-12-24T14:33:02;5.57;;;2.87;;
19826;SDS011;10074;52.018;4.726;2022-12-24T14:38:11;2.00;;;1.50;;
19826;SDS011;10074;52.018;4.726;2022-12-24T14:48:26;4.03;;;1.40;;
19826;SDS011;10074;52.018;4.726;2022-12-24T14:58:55;5.27;;;1.80;;
19826;SDS011;10074;52.018;4.726;2022-12-24T15:03:58;2.80;;;1.77;;
19826;SDS011;10074;52.018;4.726;2022-12-24T15:09:02;9.67;;;2.33;;
19826;SDS011;10074;52.018;4.726;2022-12-24T15:14:02;3.50;;;1.67;;
19826;SDS011;10074;52.018;4.726;2022-12-24T15:19:05;3.27;;;2.03;;
19826;SDS011;10074;52.018;4.726;2022-12-24T15:24:30;2.13;;;1.83;;
19826;SDS011;10074;52.018;4.726;2022-12-24T15:29:32;1.83;;;1.43;;
19826;SDS011;10074;52.018;4.726;2022-12-24T15:34:42;1.93;;;1.57;;
19826;SDS011;10074;52.018;4.726;2022-12-24T15:39:45;2.03;;;1.30;;
19826;SDS011;10074;52.018;4.726;2022-12-24T15:44:58;2.17;;;1.23;;
19826;SDS011;10074;52.018;4.726;2022-12-24T15:50:46;3.60;;;1.67;;
19826;SDS011;10074;52.018;4.726;2022-12-24T16:01:03;2.20;;;2.00;;
19826;SDS011;10074;52.018;4.726;2022-12-24T16:06:05;3.57;;;1.97;;
19826;SDS011;10074;52.018;4.726;2022-12-24T16:16:18;4.17;;;1.83;;
19826;SDS011;10074;52.018;4.726;2022-12-24T16:21:28;4.73;;;1.70;;
19826;SDS011;10074;52.018;4.726;2022-12-24T16:26:34;8.93;;;1.67;;
19826;SDS011;10074;52.018;4.726;2022-12-24T16:31:56;2.30;;;1.97;;
19826;SDS011;10074;52.018;4.726;2022-12-24T16:36:56;2.43;;;1.53;;
19826;SDS011;10074;52.018;4.726;2022-12-24T16:42:00;2.70;;;1.87;;
19826;SDS011;10074;52.018;4.726;2022-12-24T16:47:27;3.97;;;3.10;;
19826;SDS011;10074;52.018;4.726;2022-12-24T16:52:32;4.47;;;2.83;;
19826;SDS011;10074;52.018;4.726;2022-12-24T16:57:33;3.83;;;1.77;;
19826;SDS011;10074;52.018;4.726;2022-12-24T17:02:33;3.93;;;2.77;;
19826;SDS011;10074;52.018;4.726;2022-12-24T17:07:34;5.07;;;2.40;;
19826;SDS011;10074;52.018;4.726;2022-12-24T17:12:34;6.40;;;2.07;;
19826;SDS011;10074;52.018;4.726;2022-12-24T17:17:35;2.25;;;2.05;;
19826;SDS011;10074;52.018;4.726;2022-12-24T17:22:35;3.73;;;2.40;;
19826;SDS011;10074;52.018;4.726;2022-12-24T17:27:36;8.27;;;2.23;;
19826;SDS011;10074;52.018;4.726;2022-12-24T17:32:36;2.37;;;1.83;;
19826;SDS011;10074;52.018;4.726;2022-12-24T17:37:38;2.37;;;2.17;;
19826;SDS011;10074;52.018;4.726;2022-12-24T17:42:38;5.50;;;2.60;;
19826;SDS011;10074;52.018;4.726;2022-12-24T17:47:38;4.73;;;2.57;;
19826;SDS011;10074;52.018;4.726;2022-12-24T17:52:40;2.63;;;1.70;;
19826;SDS011;10074;52.018;4.726;2022-12-24T17:57:40;3.00;;;2.50;;
19826;SDS011;10074;52.018;4.726;2022-12-24T18:02:40;2.73;;;2.07;;
19826;SDS011;10074;52.018;4.726;2022-12-24T18:07:41;3.53;;;2.27;;
19826;SDS011;10074;52.018;4.726;2022-12-24T18:12:41;2.17;;;2.00;;
19826;SDS011;10074;52.018;4.726;2022-12-24T18:17:41;4.77;;;1.97;;
19826;SDS011;10074;52.018;4.726;2022-12-24T18:22:42;6.60;;;2.20;;
19826;SDS011;10074;52.018;4.726;2022-12-24T18:27:42;3.83;;;2.57;;
19826;SDS011;10074;52.018;4.726;2022-12-24T18:32:42;4.20;;;2.67;;
19826;SDS011;10074;52.018;4.726;2022-12-24T18:37:43;2.90;;;1.60;;
19826;SDS011;10074;52.018;4.726;2022-12-24T18:42:43;2.97;;;2.17;;
19826;SDS011;10074;52.018;4.726;2022-12-24T18:47:43;6.30;;;1.97;;
19826;SDS011;10074;52.018;4.726;2022-12-24T18:52:44;2.80;;;2.60;;
19826;SDS011;10074;52.018;4.726;2022-12-24T18:57:44;3.80;;;1.57;;
19826;SDS011;10074;52.018;4.726;2022-12-24T19:02:44;2.33;;;2.13;;
19826;SDS011;10074;52.018;4.726;2022-12-24T19:07:45;5.77;;;3.47;;
19826;SDS011;10074;52.018;4.726;2022-12-24T19:12:45;6.77;;;2.83;;
19826;SDS011;10074;52.018;4.726;2022-12-24T19:17:45;3.23;;;1.80;;
19826;SDS011;10074;52.018;4.726;2022-12-24T19:22:46;6.23;;;2.63;;
19826;SDS011;10074;52.018;4.726;2022-12-24T19:27:46;3.90;;;1.87;;
19826;SDS011;10074;52.018;4.726;2022-12-24T19:32:46;2.17;;;1.97;;
19826;SDS011;10074;52.018;4.726;2022-12-24T19:37:46;2.57;;;2.27;;
19826;SDS011;10074;52.018;4.726;2022-12-24T19:42:47;3.47;;;1.67;;
19826;SDS011;10074;52.018;4.726;2022-12-24T19:47:49;2.17;;;1.77;;
19826;SDS011;10074;52.018;4.726;2022-12-24T19:52:50;5.37;;;2.77;;
19826;SDS011;10074;52.018;4.726;2022-12-24T19:57:50;7.53;;;2.90;;
19826;SDS011;10074;52.018;4.726;2022-12-24T20:02:51;1.80;;;1.67;;
19826;SDS011;10074;52.018;4.726;2022-12-24T20:07:51;4.77;;;2.00;;
19826;SDS011;10074;52.018;4.726;2022-12-24T20:12:52;3.13;;;1.97;;
19826;SDS011;10074;52.018;4.726;2022-12-24T20:17:52;3.00;;;2.43;;
19826;SDS011;10074;52.018;4.726;2022-12-24T20:22:53;2.07;;;1.60;;
19826;SDS011;10074;52.018;4.726;2022-12-24T20:27:53;2.20;;;1.50;;
19826;SDS011;10074;52.018;4.726;2022-12-24T20:32:54;2.90;;;1.87;;
19826;SDS011;10074;52.018;4.726;2022-12-24T20:37:55;2.90;;;1.77;;
19826;SDS011;10074;52.018;4.726;2022-12-24T20:42:55;1.57;;;1.40;;
19826;SDS011;10074;52.018;4.726;2022-12-24T20:47:56;4.23;;;1.77;;
19826;SDS011;10074;52.018;4.726;2022-12-24T20:52:56;2.57;;;1.67;;
19826;SDS011;10074;52.018;4.726;2022-12-24T20:57:57;4.17;;;2.10;;
19826;SDS011;10074;52.018;4.726;2022-12-24T21:02:57;2.60;;;1.93;;
19826;SDS011;10074;52.018;4.726;2022-12-24T21:07:58;2.43;;;1.93;;
19826;SDS011;10074;52.018;4.726;2022-12-24T21:12:58;5.13;;;2.15;;
19826;SDS011;10074;52.018;4.726;2022-12-24T21:17:58;2.03;;;1.53;;
19826;SDS011;10074;52.018;4.726;2022-12-24T21:23:00;3.30;;;2.00;;
19826;SDS011;10074;52.018;4.726;2022-12-24T21:28:00;2.33;;;1.70;;
19826;SDS011;10074;52.018;4.726;2022-12-24T21:33:01;2.30;;;2.10;;
19826;SDS011;10074;52.018;4.726;2022-12-24T21:38:01;3.13;;;1.77;;
19826;SDS011;10074;52.018;4.726;2022-12-24T21:43:02;3.33;;;2.57;;
19826;SDS011;10074;52.018;4.726;2022-12-24T21:48:03;1.40;;;1.30;;
19826;SDS011;10074;52.018;4.726;2022-12-24T21:53:24;5.10;;;1.50;;
19826;SDS011;10074;52.018;4.726;2022-12-24T21:58:43;1.27;;;1.17;;
19826;SDS011;10074;52.018;4.726;2022-12-24T22:03:45;4.23;;;1.60;;
19826;SDS011;10074;52.018;4.726;2022-12-24T22:08:47;1.67;;;1.57;;
19826;SDS011;10074;52.018;4.726;2022-12-24T22:14:06;1.83;;;1.50;;
19826;SDS011;10074;52.018;4.726;2022-12-24T22:19:06;2.63;;;1.80;;
19826;SDS011;10074;52.018;4.726;2022-12-24T22:24:07;2.23;;;1.77;;
19826;SDS011;10074;52.018;4.726;2022-12-24T22:29:07;1.30;;;1.20;;
19826;SDS011;10074;52.018;4.726;2022-12-24T22:34:08;1.90;;;1.80;;
19826;SDS011;10074;52.018;4.726;2022-12-24T22:39:08;1.53;;;1.43;;
19826;SDS011;10074;52.018;4.726;2022-12-24T22:44:09;2.03;;;1.90;;
19826;SDS011;10074;52.018;4.726;2022-12-24T22:49:09;2.67;;;2.43;;
19826;SDS011;10074;52.018;4.726;2022-12-24T22:54:10;1.50;;;1.40;;
19826;SDS011;10074;52.018;4.726;2022-12-24T22:59:13;3.90;;;2.20;;
19826;SDS011;10074;52.018;4.726;2022-12-24T23:04:14;7.20;;;1.77;;
19826;SDS011;10074;52.018;4.726;2022-12-24T23:09:14;1.43;;;1.30;;
19826;SDS011;10074;52.018;4.726;2022-12-24T23:14:16;2.70;;;1.30;;
19826;SDS011;10074;52.018;4.726;2022-12-24T23:19:37;1.87;;;1.37;;
19826;SDS011;10074;52.018;4.726;2022-12-24T23:24:37;2.03;;;1.47;;
19826;SDS011;10074;52.018;4.726;2022-12-24T23:29:38;1.67;;;1.07;;
19826;SDS011;10074;52.018;4.726;2022-12-24T23:34:38;2.13;;;1.63;;
19826;SDS011;10074;52.018;4.726;2022-12-24T23:39:39;4.30;;;1.90;;
19826;SDS011;10074;52.018;4.726;2022-12-24T23:44:39;1.43;;;1.33;;
19826;SDS011;10074;52.018;4.726;2022-12-24T23:49:39;2.30;;;1.53;;
19826;SDS011;10074;52.018;4.726;2022-12-24T23:54:40;2.00;;;1.27;;
19826;SDS011;10074;52.018;4.726;2022-12-24T23:59:40;1.57;;;1.33;;
